createdAt,value
2022-08-22T00:00:10.193Z,18.80
2022-08-22T00:02:54.635Z,19.20
2022-08-22T00:02:57.731Z,19.00
2022-08-22T00:03:15.862Z,18.80
2022-08-22T00:05:58.279Z,18.80
2022-08-22T00:09:03.030Z,18.80
2022-08-22T00:11:43.967Z,18.80
2022-08-22T00:14:30.757Z,18.80
2022-08-22T00:17:16.852Z,18.70
2022-08-22T00:20:05.876Z,18.70
2022-08-22T00:22:35.511Z,18.70
2022-08-22T00:25:24.737Z,18.70
2022-08-22T00:28:06.579Z,18.70
2022-08-22T00:30:42.840Z,18.60
2022-08-22T00:33:23.661Z,18.60
2022-08-22T00:36:06.713Z,18.60
2022-08-22T00:38:43.875Z,18.60
2022-08-22T00:41:23.801Z,18.60
2022-08-22T00:44:09.044Z,18.60
2022-08-22T00:46:55.265Z,18.60
2022-08-22T00:49:36.836Z,18.60
2022-08-22T00:52:51.568Z,18.50
2022-08-22T00:55:39.612Z,18.50
2022-08-22T00:58:35.424Z,18.50
2022-08-22T01:01:11.053Z,18.40
2022-08-22T01:03:49.138Z,18.40
2022-08-22T01:06:52.081Z,18.40
2022-08-22T01:09:30.974Z,18.30
2022-08-22T01:11:57.252Z,18.30
2022-08-22T01:14:37.423Z,18.30
2022-08-22T01:17:52.838Z,18.30
2022-08-22T01:20:57.854Z,18.30
2022-08-22T01:23:51.765Z,18.30
2022-08-22T01:26:51.361Z,18.20
2022-08-22T01:29:54.990Z,18.20
2022-08-22T01:32:48.944Z,18.20
2022-08-22T01:36:00.697Z,18.20
2022-08-22T01:38:47.023Z,18.20
2022-08-22T01:41:48.625Z,18.20
2022-08-22T01:44:45.324Z,18.30
2022-08-22T01:47:47.604Z,18.20
2022-08-22T01:50:35.654Z,18.20
2022-08-22T01:53:30.042Z,18.20
2022-08-22T01:56:18.792Z,18.20
2022-08-22T01:59:11.401Z,18.20
2022-08-22T02:01:49.894Z,18.20
2022-08-22T02:04:33.781Z,18.10
2022-08-22T02:07:31.726Z,18.10
2022-08-22T02:10:20.844Z,18.00
2022-08-22T02:13:12.345Z,18.00
2022-08-22T02:15:46.573Z,18.00
2022-08-22T02:18:23.952Z,17.90
2022-08-22T02:21:15.154Z,17.90
2022-08-22T02:23:56.426Z,17.90
2022-08-22T02:26:38.878Z,17.90
2022-08-22T02:29:20.455Z,17.90
2022-08-22T02:32:18.236Z,17.90
2022-08-22T02:34:52.831Z,17.90
2022-08-22T02:37:37.170Z,17.90
2022-08-22T02:40:06.337Z,17.90
2022-08-22T02:43:04.672Z,17.90
2022-08-22T02:45:36.692Z,17.90
2022-08-22T02:48:44.736Z,17.90
2022-08-22T02:51:30.635Z,17.90
2022-08-22T02:54:24.676Z,17.90
2022-08-22T02:57:14.201Z,17.90
2022-08-22T03:00:27.672Z,17.90
2022-08-22T03:02:59.244Z,17.90
2022-08-22T03:05:25.589Z,17.90
2022-08-22T03:08:25.427Z,17.80
2022-08-22T03:11:15.887Z,17.80
2022-08-22T03:14:21.416Z,17.80
2022-08-22T03:16:54.304Z,17.90
2022-08-22T03:19:39.336Z,17.80
2022-08-22T03:22:19.676Z,17.80
2022-08-22T03:25:26.346Z,17.80
2022-08-22T03:28:03.086Z,17.80
2022-08-22T03:30:35.723Z,17.80
2022-08-22T03:33:22.745Z,17.80
2022-08-22T03:36:01.609Z,17.80
2022-08-22T03:38:48.161Z,17.80
2022-08-22T03:41:55.066Z,17.80
2022-08-22T03:44:30.344Z,17.80
2022-08-22T03:47:31.292Z,17.70
2022-08-22T03:50:44.272Z,17.80
2022-08-22T03:53:28.825Z,17.70
2022-08-22T03:56:29.648Z,17.70
2022-08-22T03:59:09.859Z,17.80
2022-08-22T04:02:42.193Z,17.80
2022-08-22T04:05:14.594Z,17.80
2022-08-22T04:07:42.783Z,17.80
2022-08-22T04:10:38.866Z,17.70
2022-08-22T04:13:32.543Z,17.80
2022-08-22T04:16:44.258Z,17.70
2022-08-22T04:19:31.580Z,17.80
2022-08-22T04:22:09.369Z,17.70
2022-08-22T04:24:52.321Z,17.70
2022-08-22T04:27:49.165Z,17.70
2022-08-22T04:30:40.125Z,17.70
2022-08-22T04:33:27.996Z,17.70
2022-08-22T04:36:00.206Z,17.70
2022-08-22T04:38:54.227Z,17.70
2022-08-22T04:41:52.377Z,17.60
2022-08-22T04:44:43.120Z,17.60
2022-08-22T04:47:36.181Z,17.60
2022-08-22T04:50:24.044Z,17.60
2022-08-22T04:52:50.053Z,17.60
2022-08-22T04:55:32.181Z,17.50
2022-08-22T04:58:33.039Z,17.50
2022-08-22T05:01:21.091Z,17.50
2022-08-22T05:04:14.303Z,17.50
2022-08-22T05:06:45.735Z,17.50
2022-08-22T05:09:16.915Z,17.50
2022-08-22T05:11:46.589Z,17.50
2022-08-22T05:14:29.752Z,17.50
2022-08-22T05:16:57.387Z,17.60
2022-08-22T05:19:32.755Z,17.60
2022-08-22T05:22:00.186Z,17.70
2022-08-22T05:24:39.052Z,17.70
2022-08-22T05:27:30.642Z,17.70
2022-08-22T05:30:00.009Z,17.80
2022-08-22T05:32:40.042Z,17.80
2022-08-22T05:35:08.673Z,17.90
2022-08-22T05:37:42.568Z,17.90
2022-08-22T05:40:18.565Z,17.90
2022-08-22T05:42:45.423Z,18.00
2022-08-22T05:45:14.904Z,18.00
2022-08-22T05:48:18.372Z,18.00
2022-08-22T05:50:50.984Z,18.00
2022-08-22T05:53:23.829Z,18.00
2022-08-22T05:56:17.878Z,18.00
2022-08-22T05:59:09.914Z,18.00
2022-08-22T06:01:46.671Z,18.00
2022-08-22T06:04:24.884Z,18.00
2022-08-22T06:07:02.709Z,18.10
2022-08-22T06:10:00.451Z,18.10
2022-08-22T06:12:32.541Z,18.20
2022-08-22T06:15:00.599Z,18.20
2022-08-22T06:17:35.135Z,18.30
2022-08-22T06:20:05.128Z,18.40
2022-08-22T06:22:41.242Z,18.40
2022-08-22T06:25:18.148Z,18.50
2022-08-22T06:27:47.295Z,18.50
2022-08-22T06:30:15.431Z,18.50
2022-08-22T06:32:59.806Z,18.60
2022-08-22T06:35:59.351Z,18.70
2022-08-22T06:39:04.968Z,18.70
2022-08-22T06:41:36.469Z,18.70
2022-08-22T06:44:04.884Z,18.70
2022-08-22T06:46:35.577Z,18.80
2022-08-22T06:49:04.210Z,18.90
2022-08-22T06:51:31.268Z,18.90
2022-08-22T06:54:01.532Z,19.00
2022-08-22T06:56:41.078Z,19.30
2022-08-22T06:59:18.012Z,19.80
2022-08-22T07:02:30.678Z,20.00
2022-08-22T07:04:57.470Z,20.20
2022-08-22T07:07:26.175Z,20.20
2022-08-22T07:09:56.035Z,20.30
2022-08-22T07:12:36.905Z,20.40
2022-08-22T07:15:36.450Z,20.40
2022-08-22T07:18:25.605Z,20.50
2022-08-22T07:21:03.738Z,20.70
2022-08-22T07:23:40.082Z,20.90
2022-08-22T07:26:43.434Z,21.20
2022-08-22T07:29:34.907Z,21.50
2022-08-22T07:32:19.805Z,23.00
2022-08-22T07:34:54.967Z,24.50
2022-08-22T07:37:49.635Z,25.60
2022-08-22T07:40:33.097Z,26.40
2022-08-22T07:43:31.952Z,26.70
2022-08-22T07:46:00.184Z,26.90
2022-08-22T07:48:28.622Z,27.20
2022-08-22T07:51:32.995Z,27.60
2022-08-22T07:54:05.446Z,28.30
2022-08-22T07:56:45.652Z,28.80
2022-08-22T07:59:18.933Z,29.30
2022-08-22T08:01:52.674Z,29.60
2022-08-22T08:04:26.309Z,29.90
2022-08-22T08:06:56.764Z,30.00
2022-08-22T08:09:25.740Z,30.10
2022-08-22T08:11:53.606Z,30.40
2022-08-22T08:14:22.572Z,30.80
2022-08-22T08:17:02.712Z,31.20
2022-08-22T08:19:36.182Z,31.60
2022-08-22T08:22:04.400Z,32.10
2022-08-22T08:24:37.630Z,32.40
2022-08-22T08:27:34.130Z,32.90
2022-08-22T08:30:17.910Z,33.10
2022-08-22T08:32:59.609Z,33.70
2022-08-22T08:36:02.585Z,34.20
2022-08-22T08:38:37.820Z,34.70
2022-08-22T08:41:25.898Z,35.10
2022-08-22T08:44:21.183Z,35.40
2022-08-22T08:47:09.320Z,35.00
2022-08-22T08:49:57.459Z,34.90
2022-08-22T08:52:39.024Z,35.10
2022-08-22T08:58:33.525Z,35.40
2022-08-22T09:01:34.215Z,35.30
2022-08-22T09:04:31.209Z,34.70
2022-08-22T09:07:15.774Z,34.40
2022-08-22T09:10:13.176Z,34.30
2022-08-22T09:13:11.686Z,34.70
2022-08-22T09:15:58.608Z,35.10
2022-08-22T09:18:59.192Z,35.40
2022-08-22T09:22:14.179Z,35.60
2022-08-22T09:25:06.118Z,35.70
2022-08-22T09:27:40.505Z,35.90
2022-08-22T09:30:16.920Z,36.30
2022-08-22T09:33:01.724Z,36.90
2022-08-22T09:35:37.646Z,37.70
2022-08-22T09:38:24.532Z,37.70
2022-08-22T09:40:16.684Z,35.10
2022-08-22T09:41:03.542Z,36.80
2022-08-22T09:43:45.026Z,35.80
2022-08-22T09:46:32.085Z,35.00
2022-08-22T09:49:12.700Z,34.20
2022-08-22T09:51:56.091Z,34.60
2022-08-22T09:54:42.202Z,35.60
2022-08-22T09:57:15.296Z,35.50
2022-08-22T09:59:58.108Z,34.60
2022-08-22T10:02:28.075Z,34.70
2022-08-22T10:05:04.134Z,35.90
2022-08-22T10:07:52.674Z,36.80
2022-08-22T10:10:38.025Z,37.60
2022-08-22T10:13:23.135Z,39.00
2022-08-22T10:16:13.217Z,39.80
2022-08-22T10:19:00.866Z,40.10
2022-08-22T10:21:52.675Z,40.10
2022-08-22T10:24:43.952Z,39.70
2022-08-22T10:27:22.687Z,38.90
2022-08-22T10:30:11.099Z,38.40
2022-08-22T10:33:01.516Z,37.20
2022-08-22T10:36:05.062Z,35.90
2022-08-22T10:38:54.022Z,34.80
2022-08-22T10:41:58.105Z,35.40
2022-08-22T10:44:36.105Z,35.80
2022-08-22T10:47:08.099Z,37.30
2022-08-22T10:49:52.814Z,38.10
2022-08-22T10:52:25.622Z,38.90
2022-08-22T10:54:58.479Z,39.70
2022-08-22T10:57:52.973Z,39.30
2022-08-22T11:00:46.346Z,38.70
2022-08-22T11:03:34.178Z,38.30
2022-08-22T11:06:10.287Z,37.80
2022-08-22T11:08:51.033Z,37.70
2022-08-22T11:11:47.487Z,37.60
2022-08-22T11:14:40.554Z,37.20
2022-08-22T11:17:53.912Z,37.10
2022-08-22T11:20:46.790Z,36.50
2022-08-22T11:23:40.165Z,36.10
2022-08-22T11:26:33.576Z,37.90
2022-08-22T11:29:23.342Z,39.30
2022-08-22T11:37:48.955Z,42.30
2022-08-22T11:40:29.829Z,42.90
2022-08-22T11:43:04.998Z,43.00
2022-08-22T11:45:40.324Z,42.40
2022-08-22T11:48:12.079Z,41.30
2022-08-22T11:50:58.851Z,40.40
2022-08-22T11:53:53.394Z,39.20
2022-08-22T11:56:36.502Z,38.00
2022-08-22T11:59:11.900Z,37.10
2022-08-22T12:01:56.147Z,36.70
2022-08-22T12:04:47.276Z,36.50
2022-08-22T12:07:30.772Z,36.30
2022-08-22T12:10:16.662Z,36.10
2022-08-22T12:13:12.556Z,35.70
2022-08-22T12:16:00.295Z,35.20
2022-08-22T12:18:53.025Z,34.80
2022-08-22T12:21:41.477Z,34.40
2022-08-22T12:24:35.648Z,34.00
2022-08-22T12:27:28.914Z,33.90
2022-08-22T12:30:13.946Z,34.00
2022-08-22T12:33:02.743Z,34.50
2022-08-22T12:35:48.911Z,34.80
2022-08-22T12:38:35.974Z,35.00
2022-08-22T12:41:28.115Z,34.70
2022-08-22T12:44:29.937Z,34.30
2022-08-22T12:47:34.271Z,34.60
2022-08-22T12:50:12.426Z,34.90
2022-08-22T12:53:09.857Z,35.30
2022-08-22T12:55:45.405Z,36.90
2022-08-22T12:58:33.967Z,38.30
2022-08-22T13:01:06.465Z,38.60
2022-08-22T13:03:41.261Z,38.50
2022-08-22T13:06:35.873Z,39.00
2022-08-22T13:09:10.289Z,39.80
2022-08-22T13:11:40.500Z,39.00
2022-08-22T13:14:09.724Z,38.30
2022-08-22T13:16:51.213Z,38.40
2022-08-22T13:19:24.843Z,39.00
2022-08-22T13:22:03.212Z,39.50
2022-08-22T13:24:52.363Z,40.00
2022-08-22T13:27:32.276Z,40.10
2022-08-22T13:30:06.535Z,40.50
2022-08-22T13:32:44.493Z,40.60
2022-08-22T13:35:23.913Z,40.70
2022-08-22T13:37:53.203Z,40.70
2022-08-22T13:40:30.289Z,40.60
2022-08-22T13:43:07.133Z,39.50
2022-08-22T13:45:35.825Z,38.90
2022-08-22T13:48:15.871Z,38.50
2022-08-22T13:51:00.713Z,38.20
2022-08-22T13:59:01.165Z,38.50
2022-08-22T14:01:36.993Z,37.90
2022-08-22T14:04:32.298Z,37.70
2022-08-22T14:07:02.956Z,37.80
2022-08-22T14:09:45.354Z,37.90
2022-08-22T14:12:50.350Z,37.80
2022-08-22T14:15:26.222Z,37.50
2022-08-22T14:18:12.757Z,36.50
2022-08-22T14:20:41.662Z,35.60
2022-08-22T14:23:16.431Z,35.00
2022-08-22T14:25:44.125Z,34.70
2022-08-22T14:28:40.247Z,34.50
2022-08-22T14:31:12.132Z,34.40
2022-08-22T14:33:51.624Z,34.20
2022-08-22T14:36:23.052Z,33.90
2022-08-22T14:38:56.068Z,33.60
2022-08-22T14:41:22.529Z,33.20
2022-08-22T14:43:56.328Z,32.90
2022-08-22T14:46:49.439Z,32.60
2022-08-22T14:49:18.670Z,32.20
2022-08-22T14:51:51.567Z,31.80
2022-08-22T14:54:22.477Z,31.50
2022-08-22T14:56:55.912Z,31.20
2022-08-22T14:59:35.310Z,31.10
2022-08-22T15:02:09.678Z,31.10
2022-08-22T15:04:44.079Z,30.90
2022-08-22T15:07:29.136Z,30.80
2022-08-22T15:10:22.632Z,30.70
2022-08-22T15:12:53.400Z,30.70
2022-08-22T15:15:31.980Z,30.60
2022-08-22T15:17:59.056Z,30.50
2022-08-22T15:20:30.147Z,30.40
2022-08-22T15:23:10.238Z,30.40
2022-08-22T15:25:40.910Z,30.40
2022-08-22T15:28:14.245Z,30.40
2022-08-22T15:31:03.563Z,30.40
2022-08-22T15:33:40.052Z,30.40
2022-08-22T15:36:15.813Z,30.20
2022-08-22T15:38:45.808Z,30.10
2022-08-22T15:41:37.027Z,29.90
2022-08-22T15:44:14.933Z,29.80
2022-08-22T15:47:01.664Z,29.80
2022-08-22T15:49:34.310Z,29.60
2022-08-22T15:52:08.999Z,29.50
2022-08-22T15:54:52.587Z,29.50
2022-08-22T15:57:35.353Z,29.50
2022-08-22T16:00:12.187Z,29.50
2022-08-22T16:02:55.430Z,29.40
2022-08-22T16:05:34.266Z,29.40
2022-08-22T16:08:06.459Z,29.50
2022-08-22T16:10:49.632Z,29.40
2022-08-22T16:13:31.381Z,29.30
2022-08-22T16:16:53.111Z,29.20
2022-08-22T16:19:22.861Z,29.00
2022-08-22T16:21:54.764Z,29.00
2022-08-22T16:24:23.837Z,28.90
2022-08-22T16:26:51.084Z,28.90
2022-08-22T16:29:20.338Z,28.80
2022-08-22T16:31:52.181Z,28.60
2022-08-22T16:34:23.427Z,28.50
2022-08-22T16:37:14.204Z,28.50
2022-08-22T16:40:00.418Z,28.40
2022-08-22T16:43:13.043Z,28.30
2022-08-22T16:45:44.736Z,28.30
2022-08-22T16:48:16.573Z,28.20
2022-08-22T16:50:42.979Z,28.20
2022-08-22T16:53:11.042Z,28.20
2022-08-22T16:55:39.159Z,28.10
2022-08-22T16:58:56.265Z,28.10
2022-08-22T17:01:47.864Z,28.00
2022-08-22T17:05:01.853Z,28.00
2022-08-22T17:07:57.229Z,27.90
2022-08-22T17:10:48.503Z,27.70
2022-08-22T17:13:41.046Z,27.60
2022-08-22T17:16:36.451Z,27.50
2022-08-22T17:19:15.713Z,27.50
2022-08-22T17:21:53.832Z,27.40
2022-08-22T17:24:46.428Z,27.30
2022-08-22T17:27:34.339Z,27.20
2022-08-22T17:30:06.413Z,27.10
2022-08-22T17:32:32.801Z,27.00
2022-08-22T17:35:25.773Z,26.90
2022-08-22T17:38:34.784Z,26.80
2022-08-22T17:41:31.768Z,26.80
2022-08-22T17:44:01.207Z,26.70
2022-08-22T17:46:38.635Z,26.70
2022-08-22T17:49:46.008Z,26.50
2022-08-22T17:52:27.603Z,26.50
2022-08-22T17:55:12.372Z,26.40
2022-08-22T17:58:02.161Z,26.30
2022-08-22T18:00:34.029Z,26.20
2022-08-22T18:03:14.423Z,26.20
2022-08-22T18:05:52.506Z,26.00
2022-08-22T18:11:40.227Z,25.90
2022-08-22T18:14:23.363Z,25.80
2022-08-22T18:16:55.703Z,25.70
2022-08-22T18:19:44.101Z,25.60
2022-08-22T18:22:25.684Z,25.60
2022-08-22T18:25:16.902Z,25.50
2022-08-22T18:28:01.698Z,25.30
2022-08-22T18:30:52.128Z,25.20
2022-08-22T18:33:26.454Z,25.10
2022-08-22T18:36:19.361Z,25.00
2022-08-22T18:39:20.000Z,24.90
2022-08-22T18:42:01.589Z,24.70
2022-08-22T18:44:33.673Z,24.60
2022-08-22T18:47:24.347Z,24.60
2022-08-22T18:49:56.128Z,24.50
2022-08-22T18:52:25.465Z,24.40
2022-08-22T18:55:22.914Z,24.30
2022-08-22T18:58:10.855Z,24.20
2022-08-22T19:01:18.304Z,24.10
2022-08-22T19:04:04.698Z,24.00
2022-08-22T19:06:45.987Z,23.90
2022-08-22T19:09:13.628Z,23.80
2022-08-22T19:12:01.313Z,23.60
2022-08-22T19:15:05.176Z,23.50
2022-08-22T19:17:59.056Z,23.40
2022-08-22T19:20:49.765Z,23.40
2022-08-22T19:23:39.823Z,23.30
2022-08-22T19:26:27.905Z,23.20
2022-08-22T19:29:10.140Z,23.10
2022-08-22T19:31:42.289Z,23.00
2022-08-22T19:34:32.726Z,22.90
2022-08-22T19:37:11.105Z,22.80
2022-08-22T19:40:09.188Z,22.70
2022-08-22T19:42:39.290Z,22.50
2022-08-22T19:45:28.405Z,22.40
2022-08-22T19:48:07.042Z,22.40
2022-08-22T19:50:36.257Z,22.30
2022-08-22T19:53:06.643Z,22.20
2022-08-22T19:55:38.498Z,22.10
2022-08-22T19:58:16.989Z,22.00
2022-08-22T20:01:25.799Z,21.90
2022-08-22T20:04:07.867Z,21.90
2022-08-22T20:06:53.378Z,21.80
2022-08-22T20:09:25.686Z,21.70
2022-08-22T20:12:15.143Z,21.70
2022-08-22T20:14:45.607Z,21.60
2022-08-22T20:17:23.868Z,21.50
2022-08-22T20:20:19.704Z,21.40
2022-08-22T20:23:10.271Z,21.30
2022-08-22T20:25:50.687Z,21.30
2022-08-22T20:28:46.816Z,21.20
2022-08-22T20:31:23.889Z,21.20
2022-08-22T20:34:01.248Z,21.10
2022-08-22T20:36:30.794Z,21.20
2022-08-22T20:39:06.993Z,21.10
2022-08-22T20:41:39.097Z,21.10
2022-08-22T20:44:13.414Z,21.10
2022-08-22T20:46:53.677Z,21.00
2022-08-22T20:49:41.984Z,21.00
2022-08-22T20:52:33.148Z,20.90
2022-08-22T20:55:02.484Z,20.90
2022-08-22T20:57:31.229Z,20.90
2022-08-22T21:00:12.518Z,20.80
2022-08-22T21:02:44.247Z,20.80
2022-08-22T21:05:13.547Z,20.80
2022-08-22T21:07:46.399Z,20.80
2022-08-22T21:10:44.690Z,20.70
2022-08-22T21:13:25.232Z,20.80
2022-08-22T21:15:57.648Z,20.70
2022-08-22T21:18:41.307Z,20.80
2022-08-22T21:21:29.742Z,20.80
2022-08-22T21:24:00.777Z,20.80
2022-08-22T21:26:39.744Z,20.80
2022-08-22T21:29:17.823Z,20.90
2022-08-22T21:32:13.492Z,21.00
2022-08-22T21:34:47.143Z,21.10
2022-08-22T21:37:23.990Z,21.10
2022-08-22T21:39:56.979Z,21.20
2022-08-22T21:42:37.709Z,21.20
2022-08-22T21:45:26.537Z,21.30
2022-08-22T21:47:52.864Z,21.30
2022-08-22T21:50:24.596Z,21.30
2022-08-22T21:52:54.270Z,21.30
2022-08-22T21:55:36.916Z,21.30
2022-08-22T21:58:05.836Z,21.20
2022-08-22T22:00:49.413Z,21.20
2022-08-22T22:03:22.290Z,21.20
2022-08-22T22:05:50.323Z,21.20
2022-08-22T22:08:18.762Z,21.20
2022-08-22T22:10:46.623Z,21.10
2022-08-22T22:13:13.891Z,21.10
2022-08-22T22:15:46.297Z,21.10
2022-08-22T22:18:15.395Z,21.00
2022-08-22T22:20:43.511Z,21.00
2022-08-22T22:23:10.317Z,20.90
2022-08-22T22:25:42.003Z,20.90
2022-08-22T22:28:18.121Z,20.90
2022-08-22T22:30:49.765Z,20.80
2022-08-22T22:33:18.362Z,20.70
2022-08-22T22:35:44.600Z,20.70
2022-08-22T22:38:12.553Z,20.60
2022-08-22T22:40:38.736Z,20.60
2022-08-22T22:43:05.116Z,20.50
2022-08-22T22:45:32.437Z,20.50
2022-08-22T22:47:59.139Z,20.40
2022-08-22T22:50:25.861Z,20.40
2022-08-22T22:52:54.173Z,20.30
2022-08-22T22:55:24.453Z,20.30
2022-08-22T22:57:59.049Z,20.30
2022-08-22T23:00:31.026Z,20.30
2022-08-22T23:03:00.087Z,20.30
2022-08-22T23:05:26.820Z,20.30
2022-08-22T23:07:52.955Z,20.30
2022-08-22T23:10:22.069Z,20.30
2022-08-22T23:12:48.597Z,20.30
2022-08-22T23:15:14.897Z,20.30
2022-08-22T23:17:42.174Z,20.30
2022-08-22T23:20:08.594Z,20.30
2022-08-22T23:22:34.744Z,20.30
2022-08-22T23:25:01.039Z,20.20
2022-08-22T23:27:27.158Z,20.20
2022-08-22T23:29:53.344Z,20.20
2022-08-22T23:32:19.610Z,20.20
2022-08-22T23:34:48.246Z,20.20
2022-08-22T23:37:16.967Z,20.20
2022-08-22T23:39:44.042Z,20.20
2022-08-22T23:42:11.816Z,20.10
2022-08-22T23:44:40.117Z,20.10
2022-08-22T23:47:07.632Z,20.10
2022-08-22T23:49:35.421Z,20.10
2022-08-22T23:52:02.412Z,20.00
2022-08-22T23:54:28.818Z,20.00
2022-08-22T23:56:58.056Z,19.90
2022-08-22T23:59:30.905Z,19.90
